ADDS METAR Data INFO
IDs: Format: Raw Decoded Include TAF

Data at: 2326 UTC 19 Oct 2017

KOSA 192315Z AUTO 09004KT 10SM CLR 24/11 A3011 RMK AO1 T02410113
KOSA 192255Z AUTO 11007KT 10SM CLR 25/11 A3011 RMK AO1 T02510112
KOSA 192235Z AUTO 14005KT 10SM CLR 26/13 A3011 RMK AO1 T02590131
KOSA 192215Z AUTO 15004KT 10SM CLR 26/14 A3012 RMK AO1 T02600136
KOSA 192155Z AUTO 13004KT 10SM CLR 26/13 A3012 RMK AO1 T02630134
KOSA 192135Z AUTO 11006KT 10SM CLR 26/13 A3012 RMK AO1 T02630134
KOSA 192115Z AUTO 13006KT 10SM CLR 26/14 A3013 RMK AO1 T02600138
KOSA 192055Z AUTO 15007KT 10SM CLR 26/14 A3013 RMK AO1 T02620139
KOSA 192035Z AUTO 14006KT 10SM CLR 26/13 A3013 RMK AO1 T02580133
KOSA 192015Z AUTO 14004KT 10SM CLR 26/13 A3014 RMK AO1 T02600125
KOSA 191955Z AUTO 15005KT 10SM CLR 27/13 A3015 RMK AO1 T02720131
KOSA 191935Z AUTO 12006KT 10SM CLR 27/13 A3015 RMK AO1 T02650129
KOSA 191915Z AUTO 17004KT 10SM CLR 26/14 A3016 RMK AO1 T02630140
KOSA 191855Z AUTO 11003KT 10SM CLR 26/13 A3017 RMK AO1 T02610133
KOSA 191835Z AUTO 14006KT 10SM CLR 26/14 A3018 RMK AO1 T02580142
KOSA 191815Z AUTO 00000KT 10SM CLR 25/14 A3019 RMK AO1 T02540142
KOSA 191755Z AUTO 12005KT 7SM CLR 25/15 A3020 RMK AO1 T02510145 10258 20081
KOSA 191735Z AUTO 20003KT 10SM CLR 25/14 A3021 RMK AO1 T02480144
KOSA 191715Z AUTO 12006KT 10SM CLR 24/15 A3021 RMK AO1 T02410146
KOSA 191655Z AUTO 19003KT 10SM CLR 24/15 A3022 RMK AO1 T02430150
KOSA 191635Z AUTO 15005KT 10SM CLR 23/15 A3023 RMK AO1 T02320152
KOSA 191615Z AUTO 00000KT 10SM CLR 22/15 A3023 RMK AO1 T02240154
KOSA 191555Z AUTO 00000KT 10SM CLR 21/15 A3023 RMK AO1 T02100154
KOSA 191535Z AUTO 00000KT 10SM CLR 20/15 A3023 RMK AO1 T02000152
KOSA 191515Z AUTO 00000KT 7SM CLR 19/15 A3023 RMK AO1 T01870146
KOSA 191455Z AUTO 13003KT 10SM CLR 18/14 A3023 RMK AO1 T01750141
KOSA 191435Z AUTO 00000KT 10SM CLR 16/14 A3023 RMK AO1 T01560135
KOSA 191415Z AUTO 00000KT 10SM CLR 14/13 A3023 RMK AO1 T01400127
KOSA 191355Z AUTO 00000KT 10SM CLR 12/11 A3022 RMK AO1 T01230114
KOSA 191335Z AUTO 00000KT 10SM CLR 10/10 A3020 RMK AO1 T01040101
KOSA 191315Z AUTO 00000KT 10SM CLR 10/09 A3019 RMK AO1 T00950092
KOSA 191255Z AUTO 00000KT 10SM CLR 09/09 A3019 RMK AO1 T00900086
KOSA 191235Z AUTO 00000KT 7SM CLR 09/09 A3019 RMK AO1 T00920092
KOSA 191215Z AUTO 00000KT 7SM CLR 08/08 A3019 RMK AO1 T00830081
KOSA 191155Z AUTO 00000KT 10SM CLR 09/09 A3019 RMK AO1 T00880086 10132 20078
KOSA 191135Z AUTO 00000KT 7SM CLR 09/09 A3019 RMK AO1 T00900089
KOSA 191115Z AUTO 00000KT 10SM CLR 08/08 A3019 RMK AO1 T00810077
KOSA 191055Z AUTO 00000KT 7SM CLR 08/08 A3019 RMK AO1 T00820082
KOSA 191035Z AUTO 00000KT 7SM CLR 09/09 A3018 RMK AO1 T00860086
KOSA 191015Z AUTO 04003KT 5SM CLR 09/09 A3018 RMK AO1 T00870087
KOSA 190955Z AUTO 00000KT 7SM CLR 09/09 A3017 RMK AO1 T00880087
KOSA 190935Z AUTO 00000KT 10SM CLR 09/09 A3017 RMK AO1 T00900088
KOSA 190915Z AUTO 00000KT 10SM CLR 09/09 A3017 RMK AO1 T00890088
KOSA 190855Z AUTO 00000KT 10SM CLR 10/10 A3017 RMK AO1 T00980095
KOSA 190835Z AUTO 00000KT 10SM CLR 10/10 A3017 RMK AO1 T01010097
KOSA 190815Z AUTO 00000KT 10SM CLR 10/09 A3017 RMK AO1 T00950092
KOSA 190755Z AUTO 00000KT 10SM CLR 09/09 A3017 RMK AO1 T00940091
KOSA 190735Z AUTO 00000KT 10SM CLR 11/10 A3017 RMK AO1 T01130104
KOSA 190715Z AUTO 00000KT 10SM CLR 11/10 A3016 RMK AO1 T01070098
KOSA 190655Z AUTO 00000KT 10SM CLR 10/10 A3015 RMK AO1 T01040095
KOSA 190635Z AUTO 00000KT 10SM CLR 13/11 A3015 RMK AO1 T01300107
KOSA 190615Z AUTO 00000KT 10SM CLR 12/11 A3015 RMK AO1 T01230107
KOSA 190555Z AUTO 00000KT 10SM CLR 13/11 A3015 RMK AO1 T01320105 10201 20121 402650043
KOSA 190535Z AUTO 00000KT 10SM CLR 12/11 A3015 RMK AO1 T01220107
KOSA 190515Z AUTO 13003KT 10SM CLR 12/11 A3014 RMK AO1 T01240106
KOSA 190455Z AUTO 13003KT 10SM CLR 14/11 A3014 RMK AO1 T01350105
KOSA 190435Z AUTO 12003KT 10SM CLR 14/11 A3015 RMK AO1 T01400106
KOSA 190415Z AUTO 13004KT 10SM CLR 14/11 A3015 RMK AO1 T01390106
KOSA 190355Z AUTO 13004KT 10SM CLR 14/11 A3015 RMK AO1 T01430107
KOSA 190335Z AUTO 14004KT 10SM CLR 15/11 A3015 RMK AO1 T01470107
KOSA 190315Z AUTO 13005KT 10SM CLR 14/11 A3015 RMK AO1 T01390109
KOSA 190255Z AUTO 12004KT 10SM CLR 14/11 A3015 RMK AO1 T01410112
KOSA 190235Z AUTO 13003KT 10SM CLR 14/12 A3015 RMK AO1 T01370116
KOSA 190215Z AUTO 00000KT 10SM CLR 16/11 A3014 RMK AO1 T01600106
KOSA 190155Z AUTO 00000KT 10SM CLR 15/12 A3015 RMK AO1 T01450115
KOSA 190135Z AUTO 00000KT 10SM CLR 17/11 A3014 RMK AO1 T01700105
KOSA 190115Z AUTO 00000KT 10SM CLR 17/11 A3014 RMK AO1 T01720109
KOSA 190055Z AUTO 08004KT 10SM CLR 17/12 A3014 RMK AO1 T01690117
KOSA 190035Z AUTO 09003KT 10SM CLR 19/11 A3014 RMK AO1 T01900107
KOSA 190015Z AUTO 09003KT 10SM CLR 20/11 A3013 RMK AO1 T01950109
KOSA 182355Z AUTO 00000KT 10SM CLR 20/10 A3013 RMK AO1 T02040104 10265 20204
KOSA 182335Z AUTO 13003KT 10SM CLR 23/09 A3012 RMK AO1 T02290092
KOSA 182315Z AUTO 00000KT 10SM CLR 24/09 A3012 RMK AO1 T02370094
KOSA 182255Z AUTO 00000KT 10SM CLR 25/10 A3012 RMK AO1 T02460096
KOSA 182235Z AUTO 00000KT 10SM CLR 25/09 A3012 RMK AO1 T02490089
KOSA 182215Z AUTO 17005KT 10SM CLR 26/08 A3011 RMK AO1 T02610080
KOSA 182155Z AUTO 00000KT 10SM CLR 26/07 A3012 RMK AO1 T02620071
KOSA 182135Z AUTO 18007KT 10SM CLR 26/07 A3012 RMK AO1 T02630072
KOSA 182115Z AUTO 20006KT 10SM CLR 26/08 A3012 RMK AO1 T02630077
KOSA 182055Z AUTO 17006KT 10SM CLR 26/08 A3012 RMK AO1 T02630076
KOSA 182035Z AUTO 14006KT 10SM CLR 26/08 A3012 RMK AO1 T02600082
KOSA 182015Z AUTO 00000KT 10SM CLR 26/09 A3012 RMK AO1 T02560087
KOSA 181955Z AUTO 17005KT 10SM CLR 25/09 A3014 RMK AO1 T02540090
KOSA 181935Z AUTO 14004KT 10SM CLR 25/09 A3014 RMK AO1 T02530094
KOSA 181915Z AUTO 14003KT 10SM CLR 25/09 A3015 RMK AO1 T02470087
KOSA 181855Z AUTO 13004KT 10SM CLR 24/09 A3016 RMK AO1 T02420088
KOSA 181835Z AUTO 16005KT 10SM CLR 24/08 A3018 RMK AO1 T02410081
KOSA 181815Z AUTO 14004KT 10SM CLR 24/08 A3019 RMK AO1 T02390084
KOSA 181755Z AUTO 12005KT 10SM CLR 23/08 A3020 RMK AO1 T02340078 10236 20043
KOSA 181735Z AUTO 14005KT 10SM CLR 23/08 A3020 RMK AO1 T02320083
KOSA 181715Z AUTO 17006KT 10SM CLR 23/09 A3021 RMK AO1 T02310085
KOSA 181655Z AUTO 14006KT 10SM CLR 22/08 A3022 RMK AO1 T02220081
KOSA 181635Z AUTO 16006KT 10SM CLR 22/10 A3022 RMK AO1 T02160098
KOSA 181615Z AUTO 14004KT 10SM CLR 21/11 A3022 RMK AO1 T02060105
KOSA 181555Z AUTO 13003KT 10SM CLR 19/10 A3023 RMK AO1 T01900103
KOSA 181535Z AUTO 13004KT 10SM CLR 18/11 A3023 RMK AO1 T01770105
KOSA 181515Z AUTO 13004KT 10SM CLR 16/10 A3023 RMK AO1 T01580100
KOSA 181455Z AUTO 13005KT 10SM CLR 15/10 A3022 RMK AO1 T01450095
KOSA 181435Z AUTO 12003KT 10SM CLR 13/10 A3022 RMK AO1 T01270097
KOSA 181415Z AUTO 00000KT 10SM CLR 11/09 A3022 RMK AO1 T01120089
KOSA 181355Z AUTO 00000KT 10SM CLR 10/09 A3021 RMK AO1 T00990087
KOSA 181335Z AUTO 00000KT 10SM CLR 08/08 A3021 RMK AO1 T00820077
KOSA 181315Z AUTO 00000KT 10SM CLR 07/07 A3020 RMK AO1 T00660065
KOSA 181255Z AUTO 00000KT 10SM CLR 06/06 A3020 RMK AO1 T00600056
KOSA 181235Z AUTO 00000KT 1SM VV007 05/05 A3020 RMK AO1 VIS 1/2V5 T00480048
KOSA 181215Z AUTO 00000KT 10SM CLR 06/06 A3020 RMK AO1 T00570055
KOSA 181155Z AUTO 00000KT 5SM CLR 06/06 A3020 RMK AO1 T00580055 10084 20045
KOSA 181135Z AUTO 00000KT 5SM CLR 06/06 A3020 RMK AO1 T00580057